Normandin, Canada
Current Conditions -  °F | °C
As of 8:00 PM on Saturday 20 Dec 2014 (Local Time) from CYRJ Reporting Station
Clear Clear  
Wind Chill: -10°   Ceiling: Unl
Heat Index:   Visibility: 30mi
Dew Point: -4°   Wind: 5mph
Humidity: 85%   Direction: 230°SW
Pressure: 30.34"   Gusts: NA
Location:  48.83°N, 72.52°W
Report Text: CYRJ 210100Z 23004KT 30SM SKC M18/M20 A3034 RMK SLP293
Loading
Personal Weather Stations






























Interactive Weather Map New forecast layout! Learn more

10-Day Weather Forecast

Advertisements
Track Severe Weather on mobile